Accueil
METAR-TAF:

METAR-TAF

Aéroports :

Tirupati, Inde

latitude: 13-38-16N, longitude: 79-32-50E, altitude: 107 m

Observation

Le bulletin a été fait il y a 34 minutes, à 05:30 UTC
Vent calme
Température 25°C
Humidité 79%
Pression 1015 hPa
Visibilité: 5000 m
Nuages épars à une hauteur de 2000 ft
Nuages fragmentés à une hauteur de 9000 ft
brume sèche

METAR: VOTP 080530Z 00000KT 5000 HZ SCT020 BKN090 25/21 Q1015

Heure: 11:34 (06:04 UTC)

Prévision

Le bulletin a été fait il y a 1 heure et 4 minutes, à 05:00 UTC
Prévision valable du 08 à 06 UTC au 08 à 15 UTC
Vent 8 kt de nord-est
Visibilité: 5000 m
Nuages épars à une hauteur de 2000 ft
Nuages épars à une hauteur de 2500 ft
Nuages fragmentés à une hauteur de 9000 ft
brume sèche

TAF: VOTP 080500Z 0806/0815 05008KT 5000 HZ SCT020 SCT025 BKN090

Observations et prévisions météorologiques de plus de 4000 aéroports (messages METAR et TAF).

Les stations disponibles sont représentées par des disques jaunes et rouges sur la carte.

Passer la souris dessus pour voir le nom de la station.

Cliquer dessus pour voir les observations et prévisions météorologiques.

Pour changer de carte: cliquez sur les boutons verts avec une croix noire pour zoomer, sur le bouton vert avec un tiret pour effectuer un zoom arrière, ou sur les flèches vertes pour les cartes adjacentes.


METAR-TAF: